sensor_id;sensor_type;location;lat;lon;timestamp;P1;durP1;ratioP1;P2;durP2;ratioP2
81950;SDS011;71452;52.562;5.642;2024-02-04T00:01:33;12.23;;;5.28;;
81950;SDS011;71452;52.562;5.642;2024-02-04T00:04:03;14.50;;;4.85;;
81950;SDS011;71452;52.562;5.642;2024-02-04T00:06:35;14.45;;;3.72;;
81950;SDS011;71452;52.562;5.642;2024-02-04T00:09:04;9.25;;;2.95;;
81950;SDS011;71452;52.562;5.642;2024-02-04T00:11:34;4.55;;;2.33;;
81950;SDS011;71452;52.562;5.642;2024-02-04T00:14:03;8.68;;;2.67;;
81950;SDS011;71452;52.562;5.642;2024-02-04T00:16:32;6.78;;;2.40;;
81950;SDS011;71452;52.562;5.642;2024-02-04T00:19:01;5.75;;;2.13;;
81950;SDS011;71452;52.562;5.642;2024-02-04T00:21:30;4.28;;;2.08;;
81950;SDS011;71452;52.562;5.642;2024-02-04T00:24:02;3.58;;;2.03;;
81950;SDS011;71452;52.562;5.642;2024-02-04T00:26:31;6.13;;;2.75;;
81950;SDS011;71452;52.562;5.642;2024-02-04T00:29:00;5.20;;;2.20;;
81950;SDS011;71452;52.562;5.642;2024-02-04T00:31:30;4.82;;;2.85;;
81950;SDS011;71452;52.562;5.642;2024-02-04T00:33:59;3.58;;;2.50;;
81950;SDS011;71452;52.562;5.642;2024-02-04T00:36:28;7.20;;;2.83;;
81950;SDS011;71452;52.562;5.642;2024-02-04T00:38:57;5.60;;;2.67;;
81950;SDS011;71452;52.562;5.642;2024-02-04T00:41:29;6.00;;;3.25;;
81950;SDS011;71452;52.562;5.642;2024-02-04T00:43:58;8.60;;;2.92;;
81950;SDS011;71452;52.562;5.642;2024-02-04T00:46:27;4.68;;;2.35;;
81950;SDS011;71452;52.562;5.642;2024-02-04T00:48:56;6.45;;;2.92;;
81950;SDS011;71452;52.562;5.642;2024-02-04T00:51:26;9.85;;;3.00;;
81950;SDS011;71452;52.562;5.642;2024-02-04T00:53:55;6.60;;;2.80;;
81950;SDS011;71452;52.562;5.642;2024-02-04T00:56:24;8.77;;;2.78;;
81950;SDS011;71452;52.562;5.642;2024-02-04T00:58:56;4.25;;;2.80;;
81950;SDS011;71452;52.562;5.642;2024-02-04T01:01:25;6.45;;;2.67;;
81950;SDS011;71452;52.562;5.642;2024-02-04T01:03:54;4.65;;;2.40;;
81950;SDS011;71452;52.562;5.642;2024-02-04T01:06:23;6.68;;;2.83;;
81950;SDS011;71452;52.562;5.642;2024-02-04T01:08:53;8.18;;;2.97;;
81950;SDS011;71452;52.562;5.642;2024-02-04T01:11:22;6.10;;;2.67;;
81950;SDS011;71452;52.562;5.642;2024-02-04T01:13:52;8.18;;;3.53;;
81950;SDS011;71452;52.562;5.642;2024-02-04T01:16:23;4.20;;;1.55;;
81950;SDS011;71452;52.562;5.642;2024-02-04T01:18:53;5.35;;;2.10;;
81950;SDS011;71452;52.562;5.642;2024-02-04T01:21:22;5.72;;;2.92;;
81950;SDS011;71452;52.562;5.642;2024-02-04T01:23:51;4.30;;;2.22;;
81950;SDS011;71452;52.562;5.642;2024-02-04T01:26:20;7.82;;;1.95;;
81950;SDS011;71452;52.562;5.642;2024-02-04T01:28:49;9.27;;;1.90;;
81950;SDS011;71452;52.562;5.642;2024-02-04T01:31:19;5.32;;;1.83;;
81950;SDS011;71452;52.562;5.642;2024-02-04T01:33:50;5.28;;;1.30;;
81950;SDS011;71452;52.562;5.642;2024-02-04T01:36:19;3.67;;;1.63;;
81950;SDS011;71452;52.562;5.642;2024-02-04T01:38:49;4.03;;;1.33;;
81950;SDS011;71452;52.562;5.642;2024-02-04T01:41:18;2.15;;;1.17;;
81950;SDS011;71452;52.562;5.642;2024-02-04T01:43:47;2.47;;;1.15;;
81950;SDS011;71452;52.562;5.642;2024-02-04T01:46:16;4.55;;;1.30;;
81950;SDS011;71452;52.562;5.642;2024-02-04T01:48:46;2.10;;;1.17;;
81950;SDS011;71452;52.562;5.642;2024-02-04T01:51:18;5.00;;;1.27;;
81950;SDS011;71452;52.562;5.642;2024-02-04T01:53:48;4.15;;;1.05;;
81950;SDS011;71452;52.562;5.642;2024-02-04T01:56:18;3.30;;;0.88;;
81950;SDS011;71452;52.562;5.642;2024-02-04T01:58:48;2.75;;;1.10;;
81950;SDS011;71452;52.562;5.642;2024-02-04T02:01:17;4.07;;;0.65;;
81950;SDS011;71452;52.562;5.642;2024-02-04T02:03:47;2.97;;;1.25;;
81950;SDS011;71452;52.562;5.642;2024-02-04T02:06:20;1.73;;;0.90;;
81950;SDS011;71452;52.562;5.642;2024-02-04T02:08:49;2.45;;;0.70;;
81950;SDS011;71452;52.562;5.642;2024-02-04T02:11:20;1.90;;;0.80;;
81950;SDS011;71452;52.562;5.642;2024-02-04T02:13:57;1.00;;;0.65;;
81950;SDS011;71452;52.562;5.642;2024-02-04T02:16:29;2.05;;;1.10;;
81950;SDS011;71452;52.562;5.642;2024-02-04T02:19:02;3.22;;;1.00;;
81950;SDS011;71452;52.562;5.642;2024-02-04T02:21:47;4.93;;;1.35;;
81950;SDS011;71452;52.562;5.642;2024-02-04T02:27:12;4.80;;;0.68;;
81950;SDS011;71452;52.562;5.642;2024-02-04T02:29:41;4.95;;;0.47;;
81950;SDS011;71452;52.562;5.642;2024-02-04T02:32:10;2.88;;;0.85;;
81950;SDS011;71452;52.562;5.642;2024-02-04T02:34:39;2.40;;;0.68;;
81950;SDS011;71452;52.562;5.642;2024-02-04T02:37:12;4.05;;;0.70;;
81950;SDS011;71452;52.562;5.642;2024-02-04T02:39:56;3.00;;;1.23;;
81950;SDS011;71452;52.562;5.642;2024-02-04T02:42:28;1.33;;;0.85;;
81950;SDS011;71452;52.562;5.642;2024-02-04T02:44:58;3.00;;;0.77;;
81950;SDS011;71452;52.562;5.642;2024-02-04T02:47:29;4.45;;;1.52;;
81950;SDS011;71452;52.562;5.642;2024-02-04T02:49:59;1.80;;;1.40;;
81950;SDS011;71452;52.562;5.642;2024-02-04T02:52:29;2.53;;;0.95;;
81950;SDS011;71452;52.562;5.642;2024-02-04T02:55:00;3.90;;;0.93;;
81950;SDS011;71452;52.562;5.642;2024-02-04T02:57:30;3.38;;;1.08;;
81950;SDS011;71452;52.562;5.642;2024-02-04T02:59:59;0.70;;;0.45;;
81950;SDS011;71452;52.562;5.642;2024-02-04T03:02:29;1.42;;;0.60;;
81950;SDS011;71452;52.562;5.642;2024-02-04T03:04:58;3.03;;;0.90;;
81950;SDS011;71452;52.562;5.642;2024-02-04T03:07:27;2.40;;;1.27;;
81950;SDS011;71452;52.562;5.642;2024-02-04T03:09:56;2.40;;;0.70;;
81950;SDS011;71452;52.562;5.642;2024-02-04T03:12:28;5.78;;;0.75;;
81950;SDS011;71452;52.562;5.642;2024-02-04T03:14:57;5.50;;;1.38;;
81950;SDS011;71452;52.562;5.642;2024-02-04T03:17:27;3.50;;;1.08;;
81950;SDS011;71452;52.562;5.642;2024-02-04T03:19:56;1.73;;;0.88;;
81950;SDS011;71452;52.562;5.642;2024-02-04T03:22:25;7.68;;;1.17;;
81950;SDS011;71452;52.562;5.642;2024-02-04T03:24:54;3.45;;;0.60;;
81950;SDS011;71452;52.562;5.642;2024-02-04T03:27:23;5.28;;;0.90;;
81950;SDS011;71452;52.562;5.642;2024-02-04T03:29:55;3.00;;;0.98;;
81950;SDS011;71452;52.562;5.642;2024-02-04T03:32:24;3.55;;;0.73;;
81950;SDS011;71452;52.562;5.642;2024-02-04T03:34:55;4.22;;;1.45;;
81950;SDS011;71452;52.562;5.642;2024-02-04T03:37:24;3.42;;;1.10;;
81950;SDS011;71452;52.562;5.642;2024-02-04T03:39:53;5.10;;;1.25;;
81950;SDS011;71452;52.562;5.642;2024-02-04T03:42:22;2.28;;;0.60;;
81950;SDS011;71452;52.562;5.642;2024-02-04T03:44:51;1.00;;;0.70;;
81950;SDS011;71452;52.562;5.642;2024-02-04T03:47:24;1.27;;;0.68;;
81950;SDS011;71452;52.562;5.642;2024-02-04T03:49:53;3.97;;;0.50;;
81950;SDS011;71452;52.562;5.642;2024-02-04T03:52:22;2.40;;;0.57;;
81950;SDS011;71452;52.562;5.642;2024-02-04T03:54:51;6.57;;;0.85;;
81950;SDS011;71452;52.562;5.642;2024-02-04T03:57:21;4.30;;;1.02;;
81950;SDS011;71452;52.562;5.642;2024-02-04T03:59:50;0.70;;;0.30;;
81950;SDS011;71452;52.562;5.642;2024-02-04T04:02:22;5.13;;;0.68;;
81950;SDS011;71452;52.562;5.642;2024-02-04T04:04:51;1.38;;;0.68;;
81950;SDS011;71452;52.562;5.642;2024-02-04T04:07:20;4.10;;;0.60;;
81950;SDS011;71452;52.562;5.642;2024-02-04T04:09:49;5.75;;;0.60;;
81950;SDS011;71452;52.562;5.642;2024-02-04T04:12:18;1.98;;;0.90;;
81950;SDS011;71452;52.562;5.642;2024-02-04T04:14:47;3.03;;;0.95;;
81950;SDS011;71452;52.562;5.642;2024-02-04T04:17:16;4.25;;;1.23;;
81950;SDS011;71452;52.562;5.642;2024-02-04T04:19:48;2.70;;;1.02;;
81950;SDS011;71452;52.562;5.642;2024-02-04T04:22:17;3.42;;;0.98;;
81950;SDS011;71452;52.562;5.642;2024-02-04T04:24:46;0.70;;;0.50;;
81950;SDS011;71452;52.562;5.642;2024-02-04T04:27:15;1.08;;;0.70;;
81950;SDS011;71452;52.562;5.642;2024-02-04T04:29:44;3.03;;;0.90;;
81950;SDS011;71452;52.562;5.642;2024-02-04T04:32:13;2.30;;;0.95;;
81950;SDS011;71452;52.562;5.642;2024-02-04T04:34:42;3.88;;;0.75;;
81950;SDS011;71452;52.562;5.642;2024-02-04T04:37:14;3.08;;;1.42;;
81950;SDS011;71452;52.562;5.642;2024-02-04T04:39:43;2.90;;;0.80;;
81950;SDS011;71452;52.562;5.642;2024-02-04T04:42:12;5.78;;;1.13;;
81950;SDS011;71452;52.562;5.642;2024-02-04T04:44:41;3.47;;;0.68;;
81950;SDS011;71452;52.562;5.642;2024-02-04T04:47:11;1.65;;;0.55;;
81950;SDS011;71452;52.562;5.642;2024-02-04T04:49:40;1.38;;;0.68;;
81950;SDS011;71452;52.562;5.642;2024-02-04T04:52:09;4.35;;;0.73;;
81950;SDS011;71452;52.562;5.642;2024-02-04T04:54:42;2.63;;;0.30;;
81950;SDS011;71452;52.562;5.642;2024-02-04T04:57:11;2.03;;;0.30;;
81950;SDS011;71452;52.562;5.642;2024-02-04T04:59:40;0.82;;;0.63;;
81950;SDS011;71452;52.562;5.642;2024-02-04T05:02:10;2.28;;;0.73;;
81950;SDS011;71452;52.562;5.642;2024-02-04T05:04:41;6.70;;;0.45;;
81950;SDS011;71452;52.562;5.642;2024-02-04T05:07:13;2.63;;;0.50;;
81950;SDS011;71452;52.562;5.642;2024-02-04T05:09:45;0.70;;;0.40;;
81950;SDS011;71452;52.562;5.642;2024-02-04T05:12:14;2.13;;;0.85;;
81950;SDS011;71452;52.562;5.642;2024-02-04T05:14:43;1.75;;;0.52;;
81950;SDS011;71452;52.562;5.642;2024-02-04T05:17:12;2.45;;;0.75;;
81950;SDS011;71452;52.562;5.642;2024-02-04T05:19:41;4.65;;;0.80;;
81950;SDS011;71452;52.562;5.642;2024-02-04T05:22:10;1.52;;;0.77;;
81950;SDS011;71452;52.562;5.642;2024-02-04T05:24:40;2.42;;;0.45;;
81950;SDS011;71452;52.562;5.642;2024-02-04T05:27:12;5.60;;;1.20;;
81950;SDS011;71452;52.562;5.642;2024-02-04T05:29:41;3.08;;;0.77;;
81950;SDS011;71452;52.562;5.642;2024-02-04T05:32:10;5.15;;;0.90;;
81950;SDS011;71452;52.562;5.642;2024-02-04T05:34:40;7.32;;;0.90;;
81950;SDS011;71452;52.562;5.642;2024-02-04T05:37:09;6.55;;;1.15;;
81950;SDS011;71452;52.562;5.642;2024-02-04T05:39:38;1.48;;;0.70;;
81950;SDS011;71452;52.562;5.642;2024-02-04T05:42:07;2.25;;;0.55;;
81950;SDS011;71452;52.562;5.642;2024-02-04T05:44:39;3.00;;;0.77;;
81950;SDS011;71452;52.562;5.642;2024-02-04T05:47:08;2.45;;;0.68;;
81950;SDS011;71452;52.562;5.642;2024-02-04T05:49:37;3.53;;;0.70;;
81950;SDS011;71452;52.562;5.642;2024-02-04T05:52:06;1.55;;;0.75;;
81950;SDS011;71452;52.562;5.642;2024-02-04T05:54:37;7.25;;;0.80;;
81950;SDS011;71452;52.562;5.642;2024-02-04T05:57:07;4.35;;;1.05;;
81950;SDS011;71452;52.562;5.642;2024-02-04T05:59:40;1.08;;;0.50;;
81950;SDS011;71452;52.562;5.642;2024-02-04T06:02:09;3.35;;;0.55;;
81950;SDS011;71452;52.562;5.642;2024-02-04T06:04:38;2.53;;;0.65;;
81950;SDS011;71452;52.562;5.642;2024-02-04T06:07:08;6.45;;;0.70;;
81950;SDS011;71452;52.562;5.642;2024-02-04T06:09:37;1.88;;;0.77;;
81950;SDS011;71452;52.562;5.642;2024-02-04T06:12:06;3.13;;;0.50;;
81950;SDS011;71452;52.562;5.642;2024-02-04T06:14:35;10.05;;;0.80;;
81950;SDS011;71452;52.562;5.642;2024-02-04T06:17:08;4.20;;;0.40;;
81950;SDS011;71452;52.562;5.642;2024-02-04T06:19:37;4.38;;;0.70;;
81950;SDS011;71452;52.562;5.642;2024-02-04T06:22:06;5.18;;;0.90;;
81950;SDS011;71452;52.562;5.642;2024-02-04T06:24:35;1.95;;;0.93;;
81950;SDS011;71452;52.562;5.642;2024-02-04T06:27:06;8.00;;;1.02;;
81950;SDS011;71452;52.562;5.642;2024-02-04T06:29:36;1.42;;;0.60;;
81950;SDS011;71452;52.562;5.642;2024-02-04T06:32:08;5.20;;;0.63;;
81950;SDS011;71452;52.562;5.642;2024-02-04T06:34:37;3.58;;;1.27;;
81950;SDS011;71452;52.562;5.642;2024-02-04T06:37:06;2.88;;;0.73;;
81950;SDS011;71452;52.562;5.642;2024-02-04T06:39:35;6.72;;;1.08;;
81950;SDS011;71452;52.562;5.642;2024-02-04T06:42:05;7.35;;;1.40;;
81950;SDS011;71452;52.562;5.642;2024-02-04T06:44:34;1.55;;;0.70;;
81950;SDS011;71452;52.562;5.642;2024-02-04T06:47:03;6.50;;;0.45;;
81950;SDS011;71452;52.562;5.642;2024-02-04T06:49:35;8.60;;;1.40;;
81950;SDS011;71452;52.562;5.642;2024-02-04T06:52:04;2.65;;;1.35;;
81950;SDS011;71452;52.562;5.642;2024-02-04T06:54:33;2.58;;;0.82;;
81950;SDS011;71452;52.562;5.642;2024-02-04T06:57:03;1.40;;;0.77;;
81950;SDS011;71452;52.562;5.642;2024-02-04T06:59:32;4.03;;;0.90;;
81950;SDS011;71452;52.562;5.642;2024-02-04T07:02:01;1.85;;;0.98;;
81950;SDS011;71452;52.562;5.642;2024-02-04T07:04:30;2.60;;;0.70;;
81950;SDS011;71452;52.562;5.642;2024-02-04T07:07:02;3.40;;;0.80;;
81950;SDS011;71452;52.562;5.642;2024-02-04T07:09:31;3.38;;;0.60;;
81950;SDS011;71452;52.562;5.642;2024-02-04T07:12:01;3.78;;;0.85;;
81950;SDS011;71452;52.562;5.642;2024-02-04T07:14:30;2.90;;;0.40;;
81950;SDS011;71452;52.562;5.642;2024-02-04T07:16:59;2.88;;;0.50;;
81950;SDS011;71452;52.562;5.642;2024-02-04T07:19:28;3.20;;;0.90;;
81950;SDS011;71452;52.562;5.642;2024-02-04T07:21:57;1.42;;;0.80;;
81950;SDS011;71452;52.562;5.642;2024-02-04T07:24:29;4.13;;;1.58;;
81950;SDS011;71452;52.562;5.642;2024-02-04T07:26:58;2.08;;;0.82;;
81950;SDS011;71452;52.562;5.642;2024-02-04T07:29:27;1.38;;;0.40;;
81950;SDS011;71452;52.562;5.642;2024-02-04T07:31:56;3.55;;;0.80;;
81950;SDS011;71452;52.562;5.642;2024-02-04T07:34:25;6.70;;;0.88;;
81950;SDS011;71452;52.562;5.642;2024-02-04T07:36:54;1.80;;;0.50;;
81950;SDS011;71452;52.562;5.642;2024-02-04T07:39:23;5.22;;;0.70;;
81950;SDS011;71452;52.562;5.642;2024-02-04T07:41:55;6.35;;;0.68;;
81950;SDS011;71452;52.562;5.642;2024-02-04T07:44:25;1.75;;;0.50;;
81950;SDS011;71452;52.562;5.642;2024-02-04T07:46:55;1.13;;;0.43;;
81950;SDS011;71452;52.562;5.642;2024-02-04T07:49:24;1.95;;;0.85;;
81950;SDS011;71452;52.562;5.642;2024-02-04T07:51:53;2.17;;;0.63;;
81950;SDS011;71452;52.562;5.642;2024-02-04T07:54:22;3.53;;;0.52;;
81950;SDS011;71452;52.562;5.642;2024-02-04T07:56:52;6.18;;;1.30;;
81950;SDS011;71452;52.562;5.642;2024-02-04T07:59:24;0.43;;;0.43;;
81950;SDS011;71452;52.562;5.642;2024-02-04T08:01:53;1.13;;;0.55;;
81950;SDS011;71452;52.562;5.642;2024-02-04T08:04:22;0.50;;;0.28;;
81950;SDS011;71452;52.562;5.642;2024-02-04T08:06:51;1.48;;;0.60;;
81950;SDS011;71452;52.562;5.642;2024-02-04T08:09:21;0.82;;;0.32;;
81950;SDS011;71452;52.562;5.642;2024-02-04T08:11:50;3.05;;;0.43;;
81950;SDS011;71452;52.562;5.642;2024-02-04T08:14:22;1.20;;;0.40;;
81950;SDS011;71452;52.562;5.642;2024-02-04T08:16:51;2.25;;;1.08;;
81950;SDS011;71452;52.562;5.642;2024-02-04T08:19:20;0.50;;;0.30;;
81950;SDS011;71452;52.562;5.642;2024-02-04T08:21:49;1.55;;;0.60;;
81950;SDS011;71452;52.562;5.642;2024-02-04T08:24:18;1.35;;;0.60;;
81950;SDS011;71452;52.562;5.642;2024-02-04T08:26:47;2.00;;;0.98;;
81950;SDS011;71452;52.562;5.642;2024-02-04T08:29:16;1.05;;;0.60;;
81950;SDS011;71452;52.562;5.642;2024-02-04T08:31:48;1.52;;;1.08;;
81950;SDS011;71452;52.562;5.642;2024-02-04T08:34:17;2.75;;;1.23;;
81950;SDS011;71452;52.562;5.642;2024-02-04T08:36:49;3.42;;;1.20;;
81950;SDS011;71452;52.562;5.642;2024-02-04T08:39:19;0.98;;;0.63;;
81950;SDS011;71452;52.562;5.642;2024-02-04T08:41:48;2.30;;;1.30;;
81950;SDS011;71452;52.562;5.642;2024-02-04T08:44:17;3.47;;;1.95;;
81950;SDS011;71452;52.562;5.642;2024-02-04T08:46:49;2.85;;;1.23;;
81950;SDS011;71452;52.562;5.642;2024-02-04T08:49:18;5.57;;;2.10;;
81950;SDS011;71452;52.562;5.642;2024-02-04T08:51:47;7.20;;;2.35;;
81950;SDS011;71452;52.562;5.642;2024-02-04T08:54:17;4.43;;;1.83;;
81950;SDS011;71452;52.562;5.642;2024-02-04T08:56:46;4.97;;;1.67;;
81950;SDS011;71452;52.562;5.642;2024-02-04T08:59:15;3.33;;;1.33;;
81950;SDS011;71452;52.562;5.642;2024-02-04T09:01:44;4.43;;;1.58;;
81950;SDS011;71452;52.562;5.642;2024-02-04T09:04:16;4.47;;;1.63;;
81950;SDS011;71452;52.562;5.642;2024-02-04T09:06:45;8.50;;;2.03;;
81950;SDS011;71452;52.562;5.642;2024-02-04T09:09:14;4.63;;;1.55;;
81950;SDS011;71452;52.562;5.642;2024-02-04T09:11:43;5.60;;;1.90;;
81950;SDS011;71452;52.562;5.642;2024-02-04T09:14:12;3.42;;;1.33;;
81950;SDS011;71452;52.562;5.642;2024-02-04T09:16:41;3.00;;;1.15;;
81950;SDS011;71452;52.562;5.642;2024-02-04T09:19:10;2.60;;;1.00;;
81950;SDS011;71452;52.562;5.642;2024-02-04T09:21:42;1.58;;;0.98;;
81950;SDS011;71452;52.562;5.642;2024-02-04T09:24:11;2.35;;;1.08;;
81950;SDS011;71452;52.562;5.642;2024-02-04T09:26:40;5.18;;;1.50;;
81950;SDS011;71452;52.562;5.642;2024-02-04T09:29:09;6.20;;;2.08;;
81950;SDS011;71452;52.562;5.642;2024-02-04T09:31:39;6.10;;;1.00;;
81950;SDS011;71452;52.562;5.642;2024-02-04T09:34:08;2.17;;;0.70;;
81950;SDS011;71452;52.562;5.642;2024-02-04T09:36:37;1.83;;;0.82;;
81950;SDS011;71452;52.562;5.642;2024-02-04T09:39:08;3.55;;;1.30;;
81950;SDS011;71452;52.562;5.642;2024-02-04T09:41:38;2.67;;;0.90;;
81950;SDS011;71452;52.562;5.642;2024-02-04T09:44:07;3.55;;;1.13;;
81950;SDS011;71452;52.562;5.642;2024-02-04T09:46:37;3.13;;;1.13;;
81950;SDS011;71452;52.562;5.642;2024-02-04T09:49:06;2.65;;;1.38;;
81950;SDS011;71452;52.562;5.642;2024-02-04T09:51:37;2.33;;;0.85;;
81950;SDS011;71452;52.562;5.642;2024-02-04T09:54:10;4.78;;;1.40;;
81950;SDS011;71452;52.562;5.642;2024-02-04T09:56:39;4.53;;;1.23;;
81950;SDS011;71452;52.562;5.642;2024-02-04T09:59:09;3.33;;;1.25;;
81950;SDS011;71452;52.562;5.642;2024-02-04T10:01:39;1.55;;;1.10;;
81950;SDS011;71452;52.562;5.642;2024-02-04T10:04:09;2.83;;;1.48;;
81950;SDS011;71452;52.562;5.642;2024-02-04T10:06:38;4.05;;;1.50;;
81950;SDS011;71452;52.562;5.642;2024-02-04T10:09:10;3.70;;;1.98;;
81950;SDS011;71452;52.562;5.642;2024-02-04T10:11:39;2.85;;;1.67;;
81950;SDS011;71452;52.562;5.642;2024-02-04T10:14:09;3.22;;;0.98;;
81950;SDS011;71452;52.562;5.642;2024-02-04T10:16:38;3.20;;;1.20;;
81950;SDS011;71452;52.562;5.642;2024-02-04T10:19:08;2.67;;;1.20;;
81950;SDS011;71452;52.562;5.642;2024-02-04T10:21:37;3.47;;;1.35;;
81950;SDS011;71452;52.562;5.642;2024-02-04T10:24:07;2.55;;;1.27;;
81950;SDS011;71452;52.562;5.642;2024-02-04T10:26:38;3.65;;;0.75;;
81950;SDS011;71452;52.562;5.642;2024-02-04T10:29:12;2.10;;;1.40;;
81950;SDS011;71452;52.562;5.642;2024-02-04T10:34:14;4.32;;;1.27;;
81950;SDS011;71452;52.562;5.642;2024-02-04T10:36:43;3.60;;;1.05;;
81950;SDS011;71452;52.562;5.642;2024-02-04T10:39:16;1.65;;;0.93;;
81950;SDS011;71452;52.562;5.642;2024-02-04T10:41:48;3.10;;;0.95;;
81950;SDS011;71452;52.562;5.642;2024-02-04T10:46:50;4.43;;;0.68;;
81950;SDS011;71452;52.562;5.642;2024-02-04T10:49:19;1.23;;;0.80;;
81950;SDS011;71452;52.562;5.642;2024-02-04T10:51:49;4.35;;;0.80;;
81950;SDS011;71452;52.562;5.642;2024-02-04T10:54:23;2.42;;;0.73;;
81950;SDS011;71452;52.562;5.642;2024-02-04T10:56:55;6.70;;;0.82;;
81950;SDS011;71452;52.562;5.642;2024-02-04T10:59:31;0.68;;;0.60;;
81950;SDS011;71452;52.562;5.642;2024-02-04T11:02:01;4.93;;;1.20;;
81950;SDS011;71452;52.562;5.642;2024-02-04T11:04:31;5.63;;;0.32;;
81950;SDS011;71452;52.562;5.642;2024-02-04T11:07:01;3.13;;;0.30;;
81950;SDS011;71452;52.562;5.642;2024-02-04T11:09:35;1.85;;;0.65;;
81950;SDS011;71452;52.562;5.642;2024-02-04T11:12:06;3.75;;;0.82;;
81950;SDS011;71452;52.562;5.642;2024-02-04T11:14:40;2.72;;;0.90;;
81950;SDS011;71452;52.562;5.642;2024-02-04T11:20:16;0.50;;;0.30;;
81950;SDS011;71452;52.562;5.642;2024-02-04T11:23:01;2.72;;;0.32;;
81950;SDS011;71452;52.562;5.642;2024-02-04T11:25:47;2.38;;;0.38;;
81950;SDS011;71452;52.562;5.642;2024-02-04T11:28:19;1.10;;;0.40;;
81950;SDS011;71452;52.562;5.642;2024-02-04T11:30:51;3.45;;;0.70;;
81950;SDS011;71452;52.562;5.642;2024-02-04T11:33:21;3.42;;;0.73;;
81950;SDS011;71452;52.562;5.642;2024-02-04T11:36:02;2.70;;;0.88;;
81950;SDS011;71452;52.562;5.642;2024-02-04T11:38:33;3.70;;;0.70;;
81950;SDS011;71452;52.562;5.642;2024-02-04T11:41:07;2.28;;;0.80;;
81950;SDS011;71452;52.562;5.642;2024-02-04T11:43:37;1.65;;;0.98;;
81950;SDS011;71452;52.562;5.642;2024-02-04T11:46:06;2.33;;;0.38;;
81950;SDS011;71452;52.562;5.642;2024-02-04T11:48:35;1.17;;;0.65;;
81950;SDS011;71452;52.562;5.642;2024-02-04T11:51:05;0.93;;;0.90;;
81950;SDS011;71452;52.562;5.642;2024-02-04T11:53:35;1.08;;;0.63;;
81950;SDS011;71452;52.562;5.642;2024-02-04T11:56:05;2.30;;;0.50;;
81950;SDS011;71452;52.562;5.642;2024-02-04T11:58:37;3.38;;;0.73;;
81950;SDS011;71452;52.562;5.642;2024-02-04T12:01:09;2.72;;;0.60;;
81950;SDS011;71452;52.562;5.642;2024-02-04T12:03:39;1.10;;;0.60;;
81950;SDS011;71452;52.562;5.642;2024-02-04T12:06:08;0.90;;;0.47;;
81950;SDS011;71452;52.562;5.642;2024-02-04T12:08:41;6.18;;;0.52;;
81950;SDS011;71452;52.562;5.642;2024-02-04T12:11:13;1.33;;;0.38;;
81950;SDS011;71452;52.562;5.642;2024-02-04T12:13:43;2.53;;;1.13;;
81950;SDS011;71452;52.562;5.642;2024-02-04T12:16:14;1.70;;;0.70;;
81950;SDS011;71452;52.562;5.642;2024-02-04T12:18:49;0.80;;;0.32;;
81950;SDS011;71452;52.562;5.642;2024-02-04T12:21:18;2.05;;;0.40;;
81950;SDS011;71452;52.562;5.642;2024-02-04T12:23:47;1.08;;;0.43;;
81950;SDS011;71452;52.562;5.642;2024-02-04T12:26:19;3.75;;;0.70;;
81950;SDS011;71452;52.562;5.642;2024-02-04T12:28:48;4.00;;;0.95;;
81950;SDS011;71452;52.562;5.642;2024-02-04T12:31:18;3.00;;;0.25;;
81950;SDS011;71452;52.562;5.642;2024-02-04T12:33:52;4.15;;;0.90;;
81950;SDS011;71452;52.562;5.642;2024-02-04T12:36:23;1.17;;;0.40;;
81950;SDS011;71452;52.562;5.642;2024-02-04T12:38:54;0.40;;;0.30;;
81950;SDS011;71452;52.562;5.642;2024-02-04T12:41:27;1.35;;;0.60;;
81950;SDS011;71452;52.562;5.642;2024-02-04T12:43:56;2.45;;;0.40;;
81950;SDS011;71452;52.562;5.642;2024-02-04T12:46:28;2.75;;;0.20;;
81950;SDS011;71452;52.562;5.642;2024-02-04T12:48:58;0.95;;;0.25;;
81950;SDS011;71452;52.562;5.642;2024-02-04T12:51:27;3.22;;;0.30;;
81950;SDS011;71452;52.562;5.642;2024-02-04T12:54:02;0.85;;;0.63;;
81950;SDS011;71452;52.562;5.642;2024-02-04T12:56:44;4.30;;;0.70;;
81950;SDS011;71452;52.562;5.642;2024-02-04T13:02:03;0.30;;;0.20;;
81950;SDS011;71452;52.562;5.642;2024-02-04T13:04:33;2.15;;;0.40;;
81950;SDS011;71452;52.562;5.642;2024-02-04T13:07:06;2.17;;;0.80;;
81950;SDS011;71452;52.562;5.642;2024-02-04T13:09:36;3.25;;;0.35;;
81950;SDS011;71452;52.562;5.642;2024-02-04T13:12:09;3.83;;;0.40;;
81950;SDS011;71452;52.562;5.642;2024-02-04T13:14:39;4.05;;;0.55;;
81950;SDS011;71452;52.562;5.642;2024-02-04T13:17:10;0.93;;;0.20;;
81950;SDS011;71452;52.562;5.642;2024-02-04T13:19:39;1.13;;;0.60;;
81950;SDS011;71452;52.562;5.642;2024-02-04T13:22:08;2.25;;;0.20;;
81950;SDS011;71452;52.562;5.642;2024-02-04T13:24:39;0.40;;;0.20;;
81950;SDS011;71452;52.562;5.642;2024-02-04T13:27:11;3.03;;;0.52;;
81950;SDS011;71452;52.562;5.642;2024-02-04T13:29:40;0.98;;;0.35;;
81950;SDS011;71452;52.562;5.642;2024-02-04T13:32:09;0.50;;;0.20;;
81950;SDS011;71452;52.562;5.642;2024-02-04T13:34:38;0.80;;;0.40;;
81950;SDS011;71452;52.562;5.642;2024-02-04T13:37:08;0.52;;;0.28;;
81950;SDS011;71452;52.562;5.642;2024-02-04T13:39:37;2.80;;;0.73;;
81950;SDS011;71452;52.562;5.642;2024-02-04T13:42:06;1.00;;;0.50;;
81950;SDS011;71452;52.562;5.642;2024-02-04T13:44:38;1.38;;;0.50;;
81950;SDS011;71452;52.562;5.642;2024-02-04T13:47:07;1.00;;;0.57;;
81950;SDS011;71452;52.562;5.642;2024-02-04T13:49:36;1.77;;;0.57;;
81950;SDS011;71452;52.562;5.642;2024-02-04T13:52:05;3.47;;;1.15;;
81950;SDS011;71452;52.562;5.642;2024-02-04T13:54:34;2.20;;;1.25;;
81950;SDS011;71452;52.562;5.642;2024-02-04T13:57:04;4.20;;;1.40;;
81950;SDS011;71452;52.562;5.642;2024-02-04T13:59:33;3.53;;;1.75;;
81950;SDS011;71452;52.562;5.642;2024-02-04T14:02:05;5.00;;;1.42;;
81950;SDS011;71452;52.562;5.642;2024-02-04T14:04:35;4.70;;;1.60;;
81950;SDS011;71452;52.562;5.642;2024-02-04T14:07:04;4.32;;;1.48;;
81950;SDS011;71452;52.562;5.642;2024-02-04T14:09:34;4.50;;;1.42;;
81950;SDS011;71452;52.562;5.642;2024-02-04T14:12:04;7.28;;;1.33;;
81950;SDS011;71452;52.562;5.642;2024-02-04T14:14:33;5.30;;;2.00;;
81950;SDS011;71452;52.562;5.642;2024-02-04T14:17:05;5.00;;;1.38;;
81950;SDS011;71452;52.562;5.642;2024-02-04T14:19:35;3.88;;;1.30;;
81950;SDS011;71452;52.562;5.642;2024-02-04T14:22:04;2.83;;;1.33;;
81950;SDS011;71452;52.562;5.642;2024-02-04T14:24:33;7.43;;;1.63;;
81950;SDS011;71452;52.562;5.642;2024-02-04T14:27:02;9.05;;;2.33;;
81950;SDS011;71452;52.562;5.642;2024-02-04T14:29:32;5.18;;;1.30;;
81950;SDS011;71452;52.562;5.642;2024-02-04T14:32:02;3.38;;;1.20;;
81950;SDS011;71452;52.562;5.642;2024-02-04T14:34:34;6.28;;;1.30;;
81950;SDS011;71452;52.562;5.642;2024-02-04T14:37:03;10.73;;;2.28;;
81950;SDS011;71452;52.562;5.642;2024-02-04T14:39:34;4.50;;;1.58;;
81950;SDS011;71452;52.562;5.642;2024-02-04T14:42:03;4.10;;;1.33;;
81950;SDS011;71452;52.562;5.642;2024-02-04T14:44:32;5.18;;;1.75;;
81950;SDS011;71452;52.562;5.642;2024-02-04T14:47:02;1.83;;;0.95;;
81950;SDS011;71452;52.562;5.642;2024-02-04T14:49:34;3.42;;;0.88;;
81950;SDS011;71452;52.562;5.642;2024-02-04T14:52:04;2.25;;;0.85;;
81950;SDS011;71452;52.562;5.642;2024-02-04T14:54:34;3.65;;;1.20;;
81950;SDS011;71452;52.562;5.642;2024-02-04T14:57:04;4.97;;;1.10;;
81950;SDS011;71452;52.562;5.642;2024-02-04T14:59:34;5.95;;;1.52;;
81950;SDS011;71452;52.562;5.642;2024-02-04T15:02:04;4.43;;;0.70;;
81950;SDS011;71452;52.562;5.642;2024-02-04T15:04:37;5.13;;;0.85;;
81950;SDS011;71452;52.562;5.642;2024-02-04T15:07:07;6.35;;;1.27;;
81950;SDS011;71452;52.562;5.642;2024-02-04T15:09:36;4.00;;;1.13;;
81950;SDS011;71452;52.562;5.642;2024-02-04T15:12:05;0.80;;;0.57;;
81950;SDS011;71452;52.562;5.642;2024-02-04T15:14:36;2.22;;;1.42;;
81950;SDS011;71452;52.562;5.642;2024-02-04T15:17:06;1.52;;;0.60;;
81950;SDS011;71452;52.562;5.642;2024-02-04T15:19:38;7.50;;;0.93;;